Time;durP1;ratioP1;P1;durP2;ratioP2;P2;SDS_P1;SDS_P2;PMS_P1;PMS_P2;Temp;Humidity;BMP_temperature;BMP_pressure;BME280_temperature;BME280_humidity;BME280_pressure;Samples;Min_cycle;Max_cycle;Signal;HPM_P1;HPM_P2
2023/03/05 00:01:09;;;;;;;92.45;5.50;;;;;;;22.36;54.23;99343.94;7314029;19;131758;-38
2023/03/05 00:03:35;;;;;;;39.13;2.90;;;;;;;22.35;55.25;99337.88;7316897;19;130636;-45
2023/03/05 00:06:01;;;;;;;46.03;3.20;;;;;;;22.33;53.83;99328.53;7314426;19;129936;-38
2023/03/05 00:08:28;;;;;;;32.53;2.57;;;;;;;22.31;55.78;99335.69;7313728;19;129612;-38
2023/03/05 00:10:58;;;;;;;77.93;4.53;;;;;;;22.27;55.62;99334.34;7316969;19;129210;-41
2023/03/05 00:13:23;;;;;;;51.85;3.20;;;;;;;22.25;55.49;99331.88;7314777;19;129504;-42
2023/03/05 00:15:49;;;;;;;39.90;2.90;;;;;;;22.25;53.71;99329.25;7315884;19;129829;-37
2023/03/05 00:18:14;;;;;;;31.40;2.45;;;;;;;22.14;55.91;99313.78;7314040;19;129182;-40
2023/03/05 00:20:39;;;;;;;70.40;4.53;;;;;;;22.08;54.19;99313.56;7311614;19;129892;-41
2023/03/05 00:23:05;;;;;;;47.33;3.10;;;;;;;22.21;55.08;99324.47;7316606;19;128981;-39
2023/03/05 00:25:30;;;;;;;30.95;2.25;;;;;;;22.10;54.99;99311.63;7314363;19;129719;-36
2023/03/05 00:27:55;;;;;;;54.30;3.55;;;;;;;22.23;56.26;99322.53;7313144;19;129116;-42
2023/03/05 00:30:21;;;;;;;41.63;2.63;;;;;;;22.14;53.95;99312.94;7313627;19;129755;-44
2023/03/05 00:32:46;;;;;;;57.42;3.90;;;;;;;22.18;55.92;99316.94;7316102;19;129299;-39
2023/03/05 00:35:12;;;;;;;37.83;2.60;;;;;;;22.20;55.44;99325.44;7316334;19;129196;-40
2023/03/05 00:37:37;;;;;;;41.03;3.03;;;;;;;22.14;54.94;99312.94;7314731;19;129169;-39
2023/03/05 00:40:03;;;;;;;75.73;4.40;;;;;;;22.21;56.68;99319.25;7312330;19;129516;-42
2023/03/05 00:42:29;;;;;;;49.30;3.38;;;;;;;22.04;55.68;99288.63;7316755;19;129169;-41
2023/03/05 00:44:54;;;;;;;56.57;3.23;;;;;;;22.15;54.85;99309.38;7314956;19;129170;-42
2023/03/05 00:47:20;;;;;;;45.78;2.83;;;;;;;22.00;55.67;99289.94;7314875;19;129047;-40
2023/03/05 00:49:45;;;;;;;50.83;2.90;;;;;;;22.12;55.85;99304.41;7315169;19;129811;-37
2023/03/05 00:52:10;;;;;;;42.22;2.85;;;;;;;22.11;56.01;99305.41;7311335;19;132659;-44
2023/03/05 00:54:36;;;;;;;35.50;2.53;;;;;;;22.10;56.18;99296.72;7315900;19;129744;-37
2023/03/05 00:57:01;;;;;;;55.63;3.47;;;;;;;22.04;55.88;99291.25;7314015;19;129618;-44
2023/03/05 00:59:26;;;;;;;58.67;3.45;;;;;;;22.10;56.33;99295.91;7310537;19;130284;-47
2023/03/05 01:01:52;;;;;;;18.45;1.73;;;;;;;22.08;55.71;99292.63;7314520;19;128903;-38
2023/03/05 01:04:17;;;;;;;64.10;4.07;;;;;;;21.98;56.00;99269.94;7314853;19;129926;-41
2023/03/05 01:06:44;;;;;;;65.87;3.67;;;;;;;22.05;55.09;99285.88;7308083;19;129437;-39
2023/03/05 01:09:10;;;;;;;46.20;3.03;;;;;;;22.03;55.93;99284.38;7312941;19;129451;-40
2023/03/05 01:11:36;;;;;;;46.15;3.00;;;;;;;21.98;55.76;99283.03;7315455;19;130295;-41
2023/03/05 01:14:01;;;;;;;43.47;3.10;;;;;;;22.00;55.46;99280.25;7312315;19;129063;-40
2023/03/05 01:16:26;;;;;;;62.27;3.53;;;;;;;22.03;56.31;99284.38;7312521;19;129858;-37
2023/03/05 01:18:52;;;;;;;50.17;3.33;;;;;;;22.01;55.69;99275.84;7315351;19;130317;-40
2023/03/05 01:21:17;;;;;;;45.50;2.60;;;;;;;21.98;55.59;99277.78;7312645;19;129421;-38
2023/03/05 01:23:42;;;;;;;31.23;2.08;;;;;;;21.85;57.05;99256.41;7315081;19;128999;-41
2023/03/05 01:26:08;;;;;;;59.53;3.60;;;;;;;21.96;54.77;99271.09;7311589;19;129060;-42
2023/03/05 01:28:33;;;;;;;38.33;2.33;;;;;;;21.96;56.59;99271.09;7315678;19;129690;-42
2023/03/05 01:30:59;;;;;;;35.80;2.60;;;;;;;21.94;56.00;99271.22;7314811;19;128858;-37
2023/03/05 01:33:24;;;;;;;38.00;2.37;;;;;;;21.90;54.83;99264.63;7314300;19;129240;-39
2023/03/05 01:35:50;;;;;;;49.17;2.85;;;;;;;21.89;55.85;99257.78;7313458;19;131590;-36
2023/03/05 01:38:16;;;;;;;27.70;2.03;;;;;;;21.89;56.86;99259.56;7313997;19;130281;-39
2023/03/05 01:40:42;;;;;;;39.47;2.80;;;;;;;21.89;56.57;99260.38;7312477;19;129693;-39
2023/03/05 01:43:10;;;;;;;77.18;4.57;;;;;;;21.83;55.83;99253.13;7310930;19;129093;-37
2023/03/05 01:45:37;;;;;;;77.47;4.63;;;;;;;21.82;55.97;99256.72;7302185;19;129819;-39
2023/03/05 01:48:03;;;;;;;42.38;2.75;;;;;;;21.69;55.50;99235.31;7307537;19;130313;-42
2023/03/05 01:50:28;;;;;;;28.03;2.07;;;;;;;21.83;55.13;99253.13;7311023;19;130291;-40
2023/03/05 01:52:59;;;;;;;32.88;2.15;;;;;;;21.84;57.39;99251.31;7313794;19;131313;-41
2023/03/05 01:55:26;;;;;;;69.47;4.22;;;;;;;21.78;55.84;99252.75;7311119;19;130175;-37
2023/03/05 01:58:00;;;;;;;30.65;2.22;;;;;;;21.83;57.13;99249.69;7312222;19;129167;-38
2023/03/05 02:00:29;;;;;;;31.15;1.95;;;;;;;21.81;56.97;99252.47;7310590;19;131756;-40
2023/03/05 02:03:00;;;;;;;30.83;2.08;;;;;;;21.76;56.97;99241.63;7313439;19;129811;-43
2023/03/05 02:05:31;;;;;;;66.35;4.10;;;;;;;21.79;56.64;99257.03;7310670;19;130707;-40
2023/03/05 02:08:02;;;;;;;40.10;2.83;;;;;;;21.70;57.21;99236.94;7312523;19;129222;-42
2023/03/05 02:10:32;;;;;;;19.17;1.55;;;;;;;21.77;57.44;99242.41;7312633;19;129848;-39
2023/03/05 02:13:01;;;;;;;62.25;3.92;;;;;;;21.76;56.64;99240.75;7313888;19;129176;-39
2023/03/05 02:15:28;;;;;;;32.13;2.45;;;;;;;21.76;56.03;99241.63;7311790;19;129439;-40
2023/03/05 02:17:54;;;;;;;54.78;3.40;;;;;;;21.73;55.74;99235.81;7311529;19;130314;-42
2023/03/05 02:20:41;;;;;;;50.90;3.22;;;;;;;21.74;57.80;99227.81;7311048;19;129231;-38
2023/03/05 02:23:06;;;;;;;24.43;1.63;;;;;;;21.72;55.32;99234.16;7314369;19;129443;-38
2023/03/05 02:25:32;;;;;;;14.60;1.35;;;;;;;21.70;55.90;99234.31;7311972;19;129568;-42
2023/03/05 02:28:37;;;;;;;51.08;2.92;;;;;;;21.65;58.22;99220.06;7311837;19;129908;-42
2023/03/05 02:31:13;;;;;;;34.97;2.22;;;;;;;21.70;58.33;99220.44;7313329;19;128927;-37
2023/03/05 02:33:39;;;;;;;34.03;2.22;;;;;;;21.66;56.73;99217.28;7313213;19;128957;-37
2023/03/05 02:36:05;;;;;;;48.72;2.88;;;;;;;21.63;55.90;99219.38;7310950;19;129175;-42
2023/03/05 02:38:30;;;;;;;42.43;2.53;;;;;;;21.63;55.94;99214.97;7311404;19;129375;-41
2023/03/05 02:40:55;;;;;;;29.65;1.95;;;;;;;21.65;56.16;99212.22;7313848;19;129931;-38
2023/03/05 02:43:21;;;;;;;50.00;2.95;;;;;;;21.62;55.59;99218.53;7311614;19;129326;-40
2023/03/05 02:45:46;;;;;;;56.83;3.20;;;;;;;21.61;55.68;99222.16;7310585;19;129161;-42
2023/03/05 02:48:11;;;;;;;24.37;2.13;;;;;;;21.60;56.44;99212.63;7312010;19;129453;-40
2023/03/05 02:50:38;;;;;;;31.30;1.90;;;;;;;21.59;57.25;99203.16;7309975;19;129319;-41
2023/03/05 02:53:05;;;;;;;30.27;2.13;;;;;;;21.57;55.33;99199.84;7312725;19;129009;-42
2023/03/05 02:55:30;;;;;;;61.58;3.67;;;;;;;21.56;55.61;99211.31;7311343;19;130189;-37
2023/03/05 02:57:55;;;;;;;58.70;3.47;;;;;;;21.57;56.60;99205.09;7312137;19;129725;-40
2023/03/05 03:00:21;;;;;;;38.60;2.43;;;;;;;21.56;56.03;99208.69;7309601;19;129093;-44
2023/03/05 03:02:46;;;;;;;62.78;3.70;;;;;;;21.52;56.47;99199.47;7311904;19;130454;-40
2023/03/05 03:05:11;;;;;;;146.63;7.67;;;;;;;21.44;56.56;99182.88;7308232;19;131315;-44
2023/03/05 03:07:37;;;;;;;39.70;2.57;;;;;;;21.53;56.74;99214.22;7310955;19;129326;-42
2023/03/05 03:10:04;;;;;;;29.80;1.98;;;;;;;21.51;56.52;99207.47;7309907;19;129110;-41
2023/03/05 03:12:29;;;;;;;50.90;3.10;;;;;;;21.39;55.42;99188.56;7311800;19;129456;-42
2023/03/05 03:14:54;;;;;;;46.63;2.85;;;;;;;21.49;55.68;99202.41;7309139;19;129282;-39
2023/03/05 03:17:20;;;;;;;33.80;1.90;;;;;;;21.39;55.17;99188.56;7310281;19;128968;-38
2023/03/05 03:19:45;;;;;;;33.13;2.03;;;;;;;21.51;54.77;99203.06;7310210;19;131269;-40
2023/03/05 03:22:13;;;;;;;24.87;1.83;;;;;;;21.60;53.72;99198.75;7311524;19;128741;-39
2023/03/05 03:24:42;;;;;;;69.35;4.25;;;;;;;21.62;53.97;99189.78;7308905;19;129720;-42
2023/03/05 03:27:07;;;;;;;19.88;1.67;;;;;;;21.68;53.54;99186.53;7311107;19;129882;-38
2023/03/05 03:29:33;;;;;;;29.23;1.83;;;;;;;21.93;52.84;99201.50;7309051;19;129062;-36
2023/03/05 03:31:58;;;;;;;32.27;1.93;;;;;;;22.09;51.89;99189.53;7314732;19;129073;-42
2023/03/05 03:34:24;;;;;;;41.33;2.43;;;;;;;22.19;51.77;99195.50;7318228;19;130552;-38
2023/03/05 03:36:51;;;;;;;5.03;0.87;;;;;;;22.26;52.17;99191.31;7316182;19;130187;-38
2023/03/05 03:39:17;;;;;;;;;;;;;;;22.21;51.34;99183.09;7317616;19;129815;-39
2023/03/05 03:41:45;;;;;;;46.75;2.90;;;;;;;22.26;51.36;99186.06;7319433;19;128826;-39
2023/03/05 03:44:11;;;;;;;44.22;2.53;;;;;;;22.14;51.69;99187.28;7318643;19;129628;-42
2023/03/05 03:46:38;;;;;;;8.50;0.95;;;;;;;22.04;52.18;99161.19;7314588;19;129441;-41
2023/03/05 03:49:04;;;;;;;27.13;1.67;;;;;;;22.08;52.56;99177.44;7317776;19;129121;-37
2023/03/05 03:51:29;;;;;;;44.20;2.78;;;;;;;22.00;51.97;99182.59;7318094;19;128904;-36
2023/03/05 03:53:55;;;;;;;43.88;2.42;;;;;;;21.95;52.59;99178.63;7318233;19;129524;-40
2023/03/05 03:56:21;;;;;;;50.30;3.03;;;;;;;21.86;53.08;99174.34;7314683;19;129847;-37
2023/03/05 03:58:49;;;;;;;56.10;3.20;;;;;;;21.85;53.47;99182.31;7316976;19;129776;-37
2023/03/05 04:01:15;;;;;;;49.92;2.78;;;;;;;21.82;53.25;99175.59;7317496;19;129090;-40
2023/03/05 04:03:40;;;;;;;42.42;2.55;;;;;;;21.81;53.33;99160.03;7317774;19;129293;-37
2023/03/05 04:06:06;;;;;;;55.40;3.17;;;;;;;21.76;54.22;99173.59;7313232;19;130240;-41
2023/03/05 04:08:31;;;;;;;30.63;1.93;;;;;;;21.75;53.76;99171.91;7311102;19;130114;-41
2023/03/05 04:10:59;;;;;;;63.95;3.42;;;;;;;21.75;53.66;99171.91;7313394;19;128917;-41
2023/03/05 04:13:24;;;;;;;36.83;2.05;;;;;;;21.70;53.40;99163.69;7318619;19;129413;-41
2023/03/05 04:15:50;;;;;;;29.48;1.95;;;;;;;21.70;54.57;99163.69;7316397;19;129328;-39
2023/03/05 04:18:15;;;;;;;34.87;2.10;;;;;;;21.61;55.09;99154.13;7317322;19;129107;-41
2023/03/05 04:20:40;;;;;;;48.37;2.53;;;;;;;21.70;54.59;99162.88;7314912;19;128893;-42
2023/03/05 04:23:06;;;;;;;31.70;2.00;;;;;;;21.68;54.94;99159.56;7318287;19;129633;-44
2023/03/05 04:25:31;;;;;;;41.07;2.50;;;;;;;21.65;55.50;99152.84;7314849;19;129173;-40
2023/03/05 04:27:56;;;;;;;30.58;1.85;;;;;;;21.65;55.98;99155.44;7317725;19;129142;-42
2023/03/05 04:30:22;;;;;;;49.97;2.63;;;;;;;21.62;55.72;99150.53;7315070;19;128905;-43
2023/03/05 04:32:47;;;;;;;37.83;2.23;;;;;;;21.57;56.30;99147.53;7317247;19;129240;-41
2023/03/05 04:35:12;;;;;;;46.53;2.67;;;;;;;21.60;56.37;99147.22;7315598;19;129238;-37
2023/03/05 04:37:38;;;;;;;38.50;2.17;;;;;;;21.63;53.95;99152.19;7311063;19;130325;-40
2023/03/05 04:40:04;;;;;;;47.43;3.03;;;;;;;21.77;52.99;99143.81;7314731;19;129483;-41
2023/03/05 04:42:29;;;;;;;32.20;1.80;;;;;;;22.12;52.23;99139.47;7309109;19;130334;-40
2023/03/05 04:44:55;;;;;;;37.40;2.08;;;;;;;22.63;50.62;99136.84;7314962;19;129372;-40
2023/03/05 04:47:20;;;;;;;42.22;2.38;;;;;;;23.27;49.65;99134.44;7312925;19;129109;-39
2023/03/05 04:49:45;;;;;;;39.17;2.13;;;;;;;23.78;48.11;99126.31;7315827;19;128910;-34
2023/03/05 04:52:12;;;;;;;36.70;2.30;;;;;;;24.22;46.56;99135.47;7313308;19;129941;-41
2023/03/05 04:54:37;;;;;;;57.45;3.25;;;;;;;24.54;45.88;99131.94;7316156;19;129122;-39
2023/03/05 04:57:03;;;;;;;58.87;3.03;;;;;;;24.81;45.02;99135.97;7313771;19;128940;-40
2023/03/05 04:59:29;;;;;;;67.97;3.77;;;;;;;25.14;44.72;99125.06;7315724;19;129329;-43
2023/03/05 05:01:55;;;;;;;73.30;3.90;;;;;;;25.24;44.09;99138.00;7312970;19;130327;-37
2023/03/05 05:04:20;;;;;;;30.10;1.73;;;;;;;25.34;43.95;99138.59;7316356;19;129189;-38
2023/03/05 05:06:45;;;;;;;42.17;2.27;;;;;;;25.44;43.88;99120.78;7313379;19;128991;-38
2023/03/05 05:09:11;;;;;;;60.57;3.57;;;;;;;25.49;43.14;99113.19;7313916;19;128820;-41
2023/03/05 05:11:36;;;;;;;28.40;1.57;;;;;;;25.60;43.29;99129.38;7316294;19;129613;-39
2023/03/05 05:14:02;;;;;;;20.90;1.23;;;;;;;25.66;43.19;99133.13;7312356;19;129300;-42
2023/03/05 05:16:27;;;;;;;54.87;2.73;;;;;;;25.69;42.99;99133.59;7314505;19;128919;-43
2023/03/05 05:18:53;;;;;;;36.77;2.17;;;;;;;25.69;43.21;99127.50;7312704;19;129070;-41
2023/03/05 05:21:19;;;;;;;32.67;2.07;;;;;;;25.70;43.38;99122.06;7316157;19;129492;-37
2023/03/05 05:23:45;;;;;;;55.07;2.83;;;;;;;25.75;42.99;99115.47;7310346;19;131151;-43
2023/03/05 05:26:14;;;;;;;56.73;3.17;;;;;;;25.73;43.20;99102.47;7313541;19;129038;-40
2023/03/05 05:28:43;;;;;;;45.83;2.58;;;;;;;25.83;43.08;99113.59;7312130;19;129522;-37
2023/03/05 05:31:11;;;;;;;40.65;2.22;;;;;;;25.80;43.25;99111.28;7313795;19;130274;-39
2023/03/05 05:33:36;;;;;;;14.38;1.02;;;;;;;25.86;42.82;99105.31;7312463;19;129741;-40
2023/03/05 05:36:07;;;;;;;80.73;4.33;;;;;;;25.76;42.97;99096.84;7314063;19;130254;-42
2023/03/05 05:38:33;;;;;;;52.30;2.88;;;;;;;25.79;42.67;99107.03;7314017;19;129211;-41
2023/03/05 05:41:09;;;;;;;33.40;1.83;;;;;;;25.78;42.86;99109.84;7313856;19;129732;-37
2023/03/05 05:43:34;;;;;;;34.03;2.10;;;;;;;25.80;42.54;99103.38;7314154;19;129496;-40
2023/03/05 05:46:05;;;;;;;57.30;3.17;;;;;;;25.72;42.85;99115.81;7308843;19;129700;-39
2023/03/05 05:48:32;;;;;;;18.65;1.38;;;;;;;25.68;43.17;99115.34;7313770;19;128891;-42
2023/03/05 05:50:58;;;;;;;58.63;3.17;;;;;;;25.66;42.75;99117.34;7311745;19;130085;-39
2023/03/05 05:53:24;;;;;;;30.37;1.77;;;;;;;25.59;43.55;99116.41;7312543;19;130206;-42
2023/03/05 05:55:50;;;;;;;40.27;2.20;;;;;;;25.45;43.43;99114.56;7312618;19;130908;-40
2023/03/05 05:58:16;;;;;;;53.07;2.77;;;;;;;25.39;44.42;99120.50;7315246;19;129826;-40
2023/03/05 06:00:41;;;;;;;44.33;2.40;;;;;;;25.24;44.25;99124.84;7310248;19;129068;-36
2023/03/05 06:03:07;;;;;;;36.97;2.13;;;;;;;25.00;44.34;99123.19;7311588;19;129818;-43
2023/03/05 06:05:33;;;;;;;40.67;2.33;;;;;;;24.81;45.10;99117.56;7310955;19;129991;-40
2023/03/05 06:07:59;;;;;;;47.08;2.42;;;;;;;24.69;45.16;99116.28;7312679;19;130744;-37
2023/03/05 06:10:24;;;;;;;60.23;3.23;;;;;;;24.56;45.52;99115.97;7312728;19;129381;-39
2023/03/05 06:12:49;;;;;;;61.97;3.13;;;;;;;24.43;46.33;99106.81;7309554;19;129880;-41
2023/03/05 06:15:15;;;;;;;58.57;3.23;;;;;;;24.38;46.15;99117.03;7312924;19;129517;-40
2023/03/05 06:17:41;;;;;;;38.87;2.07;;;;;;;24.32;46.79;99120.34;7313991;19;129476;-40
2023/03/05 06:20:07;;;;;;;40.27;2.37;;;;;;;24.27;46.52;99120.00;7312585;19;129267;-40
2023/03/05 06:22:37;;;;;;;44.08;2.25;;;;;;;24.27;46.62;99125.28;7310883;19;131590;-38
2023/03/05 06:25:03;;;;;;;65.15;3.83;;;;;;;24.23;47.09;99110.81;7312694;19;129428;-38
2023/03/05 06:27:29;;;;;;;36.38;1.88;;;;;;;24.18;46.58;99110.50;7312539;19;129639;-37
2023/03/05 06:29:55;;;;;;;14.80;1.00;;;;;;;24.03;47.30;99090.38;7311885;19;129548;-42
2023/03/05 06:32:21;;;;;;;140.13;7.35;;;;;;;24.13;47.10;99110.19;7309980;19;131055;-44
2023/03/05 06:34:47;;;;;;;61.92;3.30;;;;;;;24.13;47.03;99109.38;7312263;19;130335;-42
2023/03/05 06:37:12;;;;;;;39.67;2.17;;;;;;;23.99;46.64;99089.88;7313572;19;128941;-45
2023/03/05 06:39:37;;;;;;;27.85;1.55;;;;;;;24.17;46.82;99116.75;7309180;19;129927;-39
2023/03/05 06:42:03;;;;;;;34.78;1.92;;;;;;;24.13;47.37;99115.44;7313249;19;130983;-39
2023/03/05 06:44:28;;;;;;;57.67;2.93;;;;;;;24.12;47.33;99119.06;7311873;19;129182;-44
2023/03/05 06:46:54;;;;;;;28.63;1.53;;;;;;;24.08;47.06;99098.56;7310134;19;129139;-39
2023/03/05 06:49:19;;;;;;;55.03;2.87;;;;;;;24.12;46.62;99112.97;7308544;19;130533;-39
2023/03/05 06:51:44;;;;;;;39.20;2.13;;;;;;;24.12;46.63;99124.31;7313627;19;129209;-43
2023/03/05 06:54:13;;;;;;;61.25;3.05;;;;;;;24.03;47.32;99112.16;7311968;19;129148;-36
2023/03/05 06:56:41;;;;;;;38.88;2.17;;;;;;;23.96;47.39;99113.81;7312454;19;129007;-40
2023/03/05 06:59:06;;;;;;;76.65;4.07;;;;;;;23.88;47.84;99110.38;7310941;19;129939;-40
2023/03/05 07:01:32;;;;;;;32.20;2.00;;;;;;;23.82;47.04;99106.59;7309156;19;129338;-42
2023/03/05 07:03:59;;;;;;;60.03;2.97;;;;;;;23.82;47.54;99106.59;7312383;19;129348;-40
2023/03/05 07:06:26;;;;;;;31.23;1.73;;;;;;;23.81;48.11;99109.38;7301255;19;129148;-38
2023/03/05 07:08:54;;;;;;;31.38;1.73;;;;;;;23.81;47.93;99118.09;7311094;19;129446;-41
2023/03/05 07:11:20;;;;;;;49.30;2.65;;;;;;;23.85;47.37;99115.97;7311020;19;131247;-43
2023/03/05 07:13:48;;;;;;;62.37;3.10;;;;;;;23.86;47.59;99110.53;7312792;19;129604;-40
2023/03/05 07:16:17;;;;;;;67.72;3.70;;;;;;;23.89;47.88;99115.47;7307147;19;130527;-40
2023/03/05 07:18:43;;;;;;;51.00;2.65;;;;;;;23.91;47.89;99110.88;7310936;19;130034;-36
2023/03/05 07:21:10;;;;;;;37.70;2.13;;;;;;;23.93;47.16;99122.00;7310159;19;129620;-36
2023/03/05 07:23:35;;;;;;;41.20;2.28;;;;;;;23.96;47.81;99113.81;7312297;19;129030;-41
2023/03/05 07:26:02;;;;;;;40.93;2.27;;;;;;;23.97;47.15;99114.63;7309121;19;129422;-40
2023/03/05 07:28:27;;;;;;;;;;;;;;;23.97;47.17;99115.44;7307183;19;131033;-41
2023/03/05 07:31:02;;;;;;;33.83;1.98;;;;;;;23.99;47.01;99113.50;7308722;19;129722;-40
2023/03/05 07:33:27;;;;;;;47.70;2.55;;;;;;;24.07;46.91;99115.28;7305574;19;131170;-39
2023/03/05 07:35:53;;;;;;;55.63;3.00;;;;;;;24.07;47.14;99105.63;7310999;19;129399;-42
2023/03/05 07:38:19;;;;;;;45.67;2.53;;;;;;;24.01;47.51;99113.34;7307440;19;130054;-42
2023/03/05 07:40:45;;;;;;;38.90;2.03;;;;;;;23.98;47.58;99106.59;7309158;19;129839;-40
2023/03/05 07:43:10;;;;;;;73.40;3.80;;;;;;;23.97;47.74;99099.69;7307629;19;129610;-46
2023/03/05 07:45:45;;;;;;;35.70;2.07;;;;;;;23.78;47.60;99086.94;7310737;19;129946;-38
2023/03/05 07:48:16;;;;;;;107.18;5.68;;;;;;;23.82;47.76;99103.97;7309180;19;130650;-42
2023/03/05 07:50:41;;;;;;;34.10;1.85;;;;;;;23.84;48.08;99096.75;7307233;19;129297;-36
2023/03/05 07:53:07;;;;;;;35.93;1.93;;;;;;;23.84;47.74;99093.31;7311131;19;129166;-38
2023/03/05 07:55:33;;;;;;;50.90;2.60;;;;;;;23.72;47.70;99076.25;7307227;19;129311;-43
2023/03/05 07:57:58;;;;;;;27.95;1.80;;;;;;;23.88;47.68;99095.41;7310813;19;129725;-39
2023/03/05 08:00:23;;;;;;;41.63;2.37;;;;;;;23.88;47.97;99095.41;7308861;19;130441;-41
2023/03/05 08:02:49;;;;;;;52.30;2.85;;;;;;;23.89;47.75;99088.38;7307510;19;129799;-43
2023/03/05 08:05:15;;;;;;;58.28;2.97;;;;;;;23.86;47.74;99071.16;7309862;19;129610;-40
2023/03/05 08:07:43;;;;;;;35.97;1.95;;;;;;;23.99;47.76;99091.66;7307855;19;130572;-41
2023/03/05 08:10:09;;;;;;;42.47;2.17;;;;;;;24.03;47.72;99087.75;7308395;19;129570;-39
2023/03/05 08:12:35;;;;;;;54.90;2.75;;;;;;;24.03;46.91;99088.53;7310852;19;129025;-37
2023/03/05 08:15:00;;;;;;;109.67;5.97;;;;;;;24.07;47.02;99089.84;7307110;19;130545;-47
2023/03/05 08:17:25;;;;;;;69.30;3.93;;;;;;;24.10;47.23;99079.00;7301747;19;130298;-42
2023/03/05 08:19:53;;;;;;;63.53;3.43;;;;;;;24.14;47.20;99085.56;7304780;19;131426;-37
2023/03/05 08:22:19;;;;;;;82.32;4.28;;;;;;;24.12;46.76;99081.47;7306292;19;130309;-43
2023/03/05 08:24:44;;;;;;;23.50;1.30;;;;;;;24.05;46.92;99081.31;7308386;19;129555;-48
2023/03/05 08:27:10;;;;;;;113.80;6.07;;;;;;;23.95;47.11;99078.03;7303917;19;129801;-43
2023/03/05 08:29:35;;;;;;;140.80;7.90;;;;;;;23.84;47.99;99072.31;7303089;19;130319;-41
2023/03/05 08:32:00;;;;;;;94.00;4.93;;;;;;;23.72;47.58;99074.44;7309261;19;130340;-48
2023/03/05 08:34:26;;;;;;;66.22;3.45;;;;;;;23.50;47.81;99058.56;7305766;19;130452;-43
2023/03/05 08:36:51;;;;;;;44.90;2.53;;;;;;;23.49;48.26;99070.84;7306547;19;130328;-40
2023/03/05 08:39:17;;;;;;;109.97;6.00;;;;;;;23.38;48.99;99075.59;7304243;19;129898;-44
2023/03/05 08:41:42;;;;;;;61.07;3.27;;;;;;;23.30;49.46;99068.56;7309410;19;130282;-40
2023/03/05 08:44:08;;;;;;;46.05;2.38;;;;;;;23.25;48.98;99062.97;7316279;19;128859;-38
2023/03/05 08:46:33;;;;;;;76.68;4.18;;;;;;;23.23;49.29;99072.78;7302563;19;129546;-38
2023/03/05 08:48:59;;;;;;;65.17;3.50;;;;;;;23.23;49.44;99057.88;7304521;19;130213;-44
2023/03/05 08:51:25;;;;;;;99.57;5.00;;;;;;;23.19;49.00;99045.22;7309411;19;129828;-40
2023/03/05 08:53:53;;;;;;;115.00;6.25;;;;;;;23.20;48.83;99039.03;7305888;19;130367;-44
2023/03/05 08:56:19;;;;;;;47.47;2.45;;;;;;;23.39;49.25;99062.31;7315123;19;129281;-42
2023/03/05 08:58:47;;;;;;;76.80;4.13;;;;;;;23.42;48.61;99055.94;7312272;19;131086;-42
2023/03/05 09:01:14;;;;;;;92.55;4.85;;;;;;;23.47;48.86;99046.59;7306003;19;130072;-39
2023/03/05 09:03:39;;;;;;;68.97;3.80;;;;;;;23.56;48.58;99050.03;7306796;19;129077;-47
2023/03/05 09:06:08;;;;;;;110.70;6.00;;;;;;;23.59;48.06;99047.88;7300970;19;129657;-38
2023/03/05 09:08:34;;;;;;;74.10;4.18;;;;;;;23.69;47.76;99043.28;7303727;19;129679;-41
2023/03/05 09:11:02;;;;;;;77.95;4.10;;;;;;;23.76;47.85;99053.94;7306075;19;129197;-41
2023/03/05 09:13:27;;;;;;;133.18;7.18;;;;;;;23.83;47.86;99055.72;7305387;19;129654;-35
2023/03/05 09:15:54;;;;;;;74.40;4.03;;;;;;;23.87;47.79;99046.53;7302259;19;130704;-37
2023/03/05 09:18:20;;;;;;;71.05;3.72;;;;;;;23.91;47.39;99055.72;7305484;19;129356;-41
2023/03/05 09:20:45;;;;;;;112.47;5.90;;;;;;;24.00;47.88;99049.50;7300452;19;130514;-36
2023/03/05 09:23:11;;;;;;;98.27;5.47;;;;;;;24.06;47.11;99050.63;7301710;19;130768;-47
2023/03/05 09:25:39;;;;;;;45.53;2.43;;;;;;;23.99;46.88;99029.47;7304483;19;130937;-40
2023/03/05 09:28:04;;;;;;;53.45;2.83;;;;;;;24.16;46.96;99051.25;7313273;19;129784;-37
2023/03/05 09:30:30;;;;;;;59.53;3.03;;;;;;;24.21;46.96;99039.25;7303860;19;129760;-42
2023/03/05 09:32:55;;;;;;;84.10;4.50;;;;;;;24.23;47.02;99053.03;7304705;19;130417;-38
2023/03/05 09:35:20;;;;;;;82.55;4.50;;;;;;;24.22;46.53;99025.13;7306942;19;129440;-41
2023/03/05 09:37:46;;;;;;;91.00;4.93;;;;;;;24.30;46.24;99032.16;7307636;19;130580;-41
2023/03/05 09:40:17;;;;;;;93.47;4.93;;;;;;;24.20;46.73;99010.50;7306245;19;130134;-38
2023/03/05 09:43:00;;;;;;;69.80;3.80;;;;;;;24.25;46.73;99034.47;7304779;19;130177;-43
2023/03/05 09:46:04;;;;;;;39.40;2.20;;;;;;;24.09;47.18;99029.28;7307074;19;129451;-39
2023/03/05 09:48:43;;;;;;;80.38;4.57;;;;;;;24.08;47.47;99025.03;7305536;19;130834;-41
2023/03/05 09:51:15;;;;;;;73.63;3.92;;;;;;;24.03;47.56;99025.50;7305959;19;130206;-40
2023/03/05 09:53:59;;;;;;;63.42;3.55;;;;;;;23.99;47.43;99023.41;7304752;19;129471;-42
2023/03/05 09:56:39;;;;;;;75.28;4.05;;;;;;;23.99;47.63;99021.59;7303531;19;132127;-41
2023/03/05 09:59:20;;;;;;;58.00;3.13;;;;;;;24.05;46.85;99023.53;7304502;19;130153;-40
2023/03/05 10:01:49;;;;;;;51.55;2.78;;;;;;;24.10;47.19;99021.22;7304453;19;130123;-43
2023/03/05 10:04:19;;;;;;;83.30;4.30;;;;;;;24.16;47.06;99017.91;7304488;19;129736;-42
2023/03/05 10:06:45;;;;;;;83.00;4.50;;;;;;;24.20;47.11;99006.09;7303101;19;130245;-39
2023/03/05 10:09:10;;;;;;;70.47;3.90;;;;;;;24.11;46.76;98985.28;7305619;19;130568;-40
2023/03/05 10:11:55;;;;;;;54.80;3.03;;;;;;;24.26;46.96;99007.22;7305083;19;129587;-44
2023/03/05 10:14:30;;;;;;;97.07;5.20;;;;;;;24.28;47.05;99000.78;7299672;19;129559;-40
2023/03/05 10:17:08;;;;;;;79.82;4.53;;;;;;;24.33;46.29;99011.63;7303225;19;130217;-40
2023/03/05 10:20:10;;;;;;;83.13;4.60;;;;;;;24.38;46.80;98997.94;7299393;19;130346;-36
2023/03/05 10:23:01;;;;;;;76.22;4.03;;;;;;;24.38;46.57;98988.28;7303784;19;129933;-41
2023/03/05 10:25:40;;;;;;;69.85;4.07;;;;;;;24.40;46.39;98991.56;7301901;19;130087;-45
2023/03/05 10:28:16;;;;;;;84.50;4.57;;;;;;;24.36;45.80;98987.63;7304352;19;130238;-40
2023/03/05 10:31:00;;;;;;;91.65;4.82;;;;;;;24.26;46.35;98988.84;7298702;19;131789;-40
2023/03/05 10:33:39;;;;;;;116.75;6.00;;;;;;;24.23;47.01;98984.72;7303473;19;130085;-43
2023/03/05 10:36:16;;;;;;;86.80;4.72;;;;;;;24.14;47.38;98985.78;7303699;19;130479;-45
2023/03/05 10:39:09;;;;;;;107.32;5.88;;;;;;;23.99;47.44;98945.44;7300615;19;130073;-39
2023/03/05 10:41:51;;;;;;;74.22;4.10;;;;;;;24.16;46.32;98957.50;7305594;19;130630;-40
2023/03/05 10:44:23;;;;;;;57.88;3.40;;;;;;;24.13;43.89;98963.09;7308951;19;129696;-38
2023/03/05 10:46:49;;;;;;;65.55;3.70;;;;;;;24.16;43.51;98960.13;7301418;19;129750;-39
2023/03/05 10:49:23;;;;;;;67.47;3.83;;;;;;;24.26;43.27;98963.38;7299488;19;130752;-42
2023/03/05 10:52:00;;;;;;;81.45;4.53;;;;;;;24.22;43.02;98951.59;7303093;19;130868;-46
2023/03/05 10:54:29;;;;;;;92.82;5.13;;;;;;;24.29;43.10;98949.09;7304346;19;130446;-38
2023/03/05 10:57:12;;;;;;;110.68;6.10;;;;;;;24.32;42.87;98944.31;7301864;19;130200;-45
2023/03/05 10:59:46;;;;;;;63.17;3.55;;;;;;;24.36;42.53;98937.69;7301426;19;129839;-39
2023/03/05 11:02:12;;;;;;;67.43;3.88;;;;;;;24.39;41.92;98939.97;7302760;19;131116;-37
2023/03/05 11:04:39;;;;;;;89.83;5.43;;;;;;;24.40;34.92;98939.00;7303408;19;129192;-39
2023/03/05 11:07:14;;;;;;;99.43;5.72;;;;;;;24.27;34.01;98943.19;7295417;19;130211;-39
2023/03/05 11:09:41;;;;;;;99.28;5.90;;;;;;;24.09;35.43;98946.06;7301060;19;129888;-39
2023/03/05 11:12:18;;;;;;;83.47;4.90;;;;;;;23.92;37.49;98943.63;7303366;19;132777;-42
2023/03/05 11:15:02;;;;;;;;;;;;;;;23.77;39.08;98940.06;7303665;19;129470;-43
2023/03/05 11:17:46;;;;;;;86.47;5.13;;;;;;;23.83;38.90;98953.34;7300222;19;130017;-45
2023/03/05 11:20:30;;;;;;;95.20;5.53;;;;;;;23.98;39.04;98933.28;7294853;19;131586;-43